sensor_id;sensor_type;location;lat;lon;timestamp;P1;durP1;ratioP1;P2;durP2;ratioP2
53801;SDS011;39709;53.334;6.534;2023-08-06T00:00:21;6.10;;;2.37;;
53801;SDS011;39709;53.334;6.534;2023-08-06T00:02:48;6.63;;;1.90;;
53801;SDS011;39709;53.334;6.534;2023-08-06T00:05:14;5.15;;;1.95;;
53801;SDS011;39709;53.334;6.534;2023-08-06T00:07:43;6.55;;;2.15;;
53801;SDS011;39709;53.334;6.534;2023-08-06T00:10:10;8.33;;;3.43;;
53801;SDS011;39709;53.334;6.534;2023-08-06T00:12:36;6.45;;;2.40;;
53801;SDS011;39709;53.334;6.534;2023-08-06T00:15:02;8.20;;;2.55;;
53801;SDS011;39709;53.334;6.534;2023-08-06T00:17:27;7.27;;;2.70;;
53801;SDS011;39709;53.334;6.534;2023-08-06T00:19:53;8.40;;;2.88;;
53801;SDS011;39709;53.334;6.534;2023-08-06T00:22:19;8.93;;;2.80;;
53801;SDS011;39709;53.334;6.534;2023-08-06T00:24:44;5.90;;;2.78;;
53801;SDS011;39709;53.334;6.534;2023-08-06T00:27:10;8.63;;;3.37;;
53801;SDS011;39709;53.334;6.534;2023-08-06T00:29:36;6.05;;;2.35;;
53801;SDS011;39709;53.334;6.534;2023-08-06T00:32:01;7.27;;;3.23;;
53801;SDS011;39709;53.334;6.534;2023-08-06T00:34:27;7.63;;;2.50;;
53801;SDS011;39709;53.334;6.534;2023-08-06T00:36:53;7.37;;;3.23;;
53801;SDS011;39709;53.334;6.534;2023-08-06T00:39:19;7.40;;;3.40;;
53801;SDS011;39709;53.334;6.534;2023-08-06T00:41:45;6.45;;;2.95;;
53801;SDS011;39709;53.334;6.534;2023-08-06T00:44:10;7.50;;;3.40;;
53801;SDS011;39709;53.334;6.534;2023-08-06T00:46:36;6.75;;;2.22;;
53801;SDS011;39709;53.334;6.534;2023-08-06T00:49:02;6.70;;;3.13;;
53801;SDS011;39709;53.334;6.534;2023-08-06T00:51:28;8.20;;;3.00;;
53801;SDS011;39709;53.334;6.534;2023-08-06T00:53:54;5.90;;;2.60;;
53801;SDS011;39709;53.334;6.534;2023-08-06T00:56:21;7.95;;;3.05;;
53801;SDS011;39709;53.334;6.534;2023-08-06T00:58:47;7.57;;;2.90;;
53801;SDS011;39709;53.334;6.534;2023-08-06T01:01:14;6.22;;;2.92;;
53801;SDS011;39709;53.334;6.534;2023-08-06T01:03:39;8.60;;;3.75;;
53801;SDS011;39709;53.334;6.534;2023-08-06T01:06:05;9.43;;;4.27;;
53801;SDS011;39709;53.334;6.534;2023-08-06T01:13:54;7.30;;;3.13;;
53801;SDS011;39709;53.334;6.534;2023-08-06T01:16:31;9.00;;;3.20;;
53801;SDS011;39709;53.334;6.534;2023-08-06T01:18:58;6.38;;;2.78;;
53801;SDS011;39709;53.334;6.534;2023-08-06T01:21:24;7.13;;;2.03;;
53801;SDS011;39709;53.334;6.534;2023-08-06T01:23:50;6.32;;;2.40;;
53801;SDS011;39709;53.334;6.534;2023-08-06T01:26:22;7.07;;;2.53;;
53801;SDS011;39709;53.334;6.534;2023-08-06T01:31:20;4.37;;;1.77;;
53801;SDS011;39709;53.334;6.534;2023-08-06T01:33:49;6.78;;;2.80;;
53801;SDS011;39709;53.334;6.534;2023-08-06T01:36:16;7.70;;;2.22;;
53801;SDS011;39709;53.334;6.534;2023-08-06T01:38:43;8.97;;;2.50;;
53801;SDS011;39709;53.334;6.534;2023-08-06T01:41:09;8.63;;;3.05;;
53801;SDS011;39709;53.334;6.534;2023-08-06T01:43:35;7.20;;;2.90;;
53801;SDS011;39709;53.334;6.534;2023-08-06T01:46:00;3.87;;;1.30;;
53801;SDS011;39709;53.334;6.534;2023-08-06T01:48:26;7.40;;;3.30;;
53801;SDS011;39709;53.334;6.534;2023-08-06T01:50:52;8.50;;;3.13;;
53801;SDS011;39709;53.334;6.534;2023-08-06T01:53:17;9.13;;;3.63;;
53801;SDS011;39709;53.334;6.534;2023-08-06T01:55:47;4.80;;;2.00;;
53801;SDS011;39709;53.334;6.534;2023-08-06T01:58:15;6.25;;;2.88;;
53801;SDS011;39709;53.334;6.534;2023-08-06T02:00:41;7.57;;;3.33;;
53801;SDS011;39709;53.334;6.534;2023-08-06T02:03:07;6.05;;;2.88;;
53801;SDS011;39709;53.334;6.534;2023-08-06T02:05:33;8.20;;;4.10;;
53801;SDS011;39709;53.334;6.534;2023-08-06T02:07:58;7.47;;;3.42;;
53801;SDS011;39709;53.334;6.534;2023-08-06T02:10:24;8.63;;;3.60;;
53801;SDS011;39709;53.334;6.534;2023-08-06T02:12:50;6.78;;;2.92;;
53801;SDS011;39709;53.334;6.534;2023-08-06T02:15:15;7.03;;;2.87;;
53801;SDS011;39709;53.334;6.534;2023-08-06T02:17:41;8.70;;;3.63;;
53801;SDS011;39709;53.334;6.534;2023-08-06T02:20:07;7.30;;;3.70;;
53801;SDS011;39709;53.334;6.534;2023-08-06T02:22:33;9.10;;;4.00;;
53801;SDS011;39709;53.334;6.534;2023-08-06T02:24:59;8.35;;;3.75;;
53801;SDS011;39709;53.334;6.534;2023-08-06T02:27:24;7.80;;;3.57;;
53801;SDS011;39709;53.334;6.534;2023-08-06T02:29:50;8.30;;;2.83;;
53801;SDS011;39709;53.334;6.534;2023-08-06T02:32:16;7.13;;;3.50;;
53801;SDS011;39709;53.334;6.534;2023-08-06T02:34:42;5.68;;;2.47;;
53801;SDS011;39709;53.334;6.534;2023-08-06T02:37:07;9.10;;;4.40;;
53801;SDS011;39709;53.334;6.534;2023-08-06T02:39:33;7.65;;;4.05;;
53801;SDS011;39709;53.334;6.534;2023-08-06T02:42:00;8.23;;;3.80;;
53801;SDS011;39709;53.334;6.534;2023-08-06T02:44:29;8.13;;;3.67;;
53801;SDS011;39709;53.334;6.534;2023-08-06T02:46:55;10.95;;;4.72;;
53801;SDS011;39709;53.334;6.534;2023-08-06T02:49:20;9.67;;;4.10;;
53801;SDS011;39709;53.334;6.534;2023-08-06T02:51:46;8.35;;;4.45;;
53801;SDS011;39709;53.334;6.534;2023-08-06T02:54:12;8.80;;;3.97;;
53801;SDS011;39709;53.334;6.534;2023-08-06T02:56:37;8.98;;;4.43;;
53801;SDS011;39709;53.334;6.534;2023-08-06T02:59:03;8.50;;;4.27;;
53801;SDS011;39709;53.334;6.534;2023-08-06T03:01:29;11.43;;;4.28;;
53801;SDS011;39709;53.334;6.534;2023-08-06T03:03:54;10.13;;;4.37;;
53801;SDS011;39709;53.334;6.534;2023-08-06T03:06:20;9.40;;;4.43;;
53801;SDS011;39709;53.334;6.534;2023-08-06T03:08:46;9.40;;;4.60;;
53801;SDS011;39709;53.334;6.534;2023-08-06T03:11:11;9.90;;;4.60;;
53801;SDS011;39709;53.334;6.534;2023-08-06T03:13:37;7.63;;;3.70;;
53801;SDS011;39709;53.334;6.534;2023-08-06T03:16:03;7.87;;;3.87;;
53801;SDS011;39709;53.334;6.534;2023-08-06T03:18:29;8.05;;;4.10;;
53801;SDS011;39709;53.334;6.534;2023-08-06T03:20:54;6.72;;;3.53;;
53801;SDS011;39709;53.334;6.534;2023-08-06T03:23:20;7.20;;;3.20;;
53801;SDS011;39709;53.334;6.534;2023-08-06T03:25:46;11.35;;;4.35;;
53801;SDS011;39709;53.334;6.534;2023-08-06T03:28:12;6.67;;;3.17;;
53801;SDS011;39709;53.334;6.534;2023-08-06T03:30:37;6.88;;;3.45;;
53801;SDS011;39709;53.334;6.534;2023-08-06T03:33:03;8.85;;;4.28;;
53801;SDS011;39709;53.334;6.534;2023-08-06T03:35:29;8.83;;;4.50;;
53801;SDS011;39709;53.334;6.534;2023-08-06T03:37:55;9.50;;;4.43;;
53801;SDS011;39709;53.334;6.534;2023-08-06T03:40:21;16.25;;;4.72;;
53801;SDS011;39709;53.334;6.534;2023-08-06T03:42:46;5.72;;;2.58;;
53801;SDS011;39709;53.334;6.534;2023-08-06T03:45:12;9.07;;;4.30;;
53801;SDS011;39709;53.334;6.534;2023-08-06T03:47:38;8.68;;;4.18;;
53801;SDS011;39709;53.334;6.534;2023-08-06T03:50:03;8.33;;;4.30;;
53801;SDS011;39709;53.334;6.534;2023-08-06T03:52:29;10.10;;;4.25;;
53801;SDS011;39709;53.334;6.534;2023-08-06T03:54:55;8.20;;;3.93;;
53801;SDS011;39709;53.334;6.534;2023-08-06T03:57:21;10.43;;;4.10;;
53801;SDS011;39709;53.334;6.534;2023-08-06T03:59:46;10.00;;;4.60;;
53801;SDS011;39709;53.334;6.534;2023-08-06T04:02:12;9.02;;;4.47;;
53801;SDS011;39709;53.334;6.534;2023-08-06T04:04:38;9.80;;;4.37;;
53801;SDS011;39709;53.334;6.534;2023-08-06T04:07:03;9.25;;;4.90;;
53801;SDS011;39709;53.334;6.534;2023-08-06T04:09:29;9.80;;;4.73;;
53801;SDS011;39709;53.334;6.534;2023-08-06T04:11:55;9.00;;;4.22;;
53801;SDS011;39709;53.334;6.534;2023-08-06T04:14:21;8.33;;;4.37;;
53801;SDS011;39709;53.334;6.534;2023-08-06T04:16:47;9.05;;;4.65;;
53801;SDS011;39709;53.334;6.534;2023-08-06T04:19:12;8.97;;;4.60;;
53801;SDS011;39709;53.334;6.534;2023-08-06T04:21:38;8.38;;;3.83;;
53801;SDS011;39709;53.334;6.534;2023-08-06T04:24:04;7.90;;;3.93;;
53801;SDS011;39709;53.334;6.534;2023-08-06T04:26:29;8.77;;;4.03;;
53801;SDS011;39709;53.334;6.534;2023-08-06T04:28:55;8.97;;;4.70;;
53801;SDS011;39709;53.334;6.534;2023-08-06T04:31:21;10.43;;;5.90;;
53801;SDS011;39709;53.334;6.534;2023-08-06T04:33:48;9.68;;;4.85;;
53801;SDS011;39709;53.334;6.534;2023-08-06T04:36:13;9.80;;;4.90;;
53801;SDS011;39709;53.334;6.534;2023-08-06T04:38:39;11.03;;;4.47;;
53801;SDS011;39709;53.334;6.534;2023-08-06T04:41:09;8.75;;;3.92;;
53801;SDS011;39709;53.334;6.534;2023-08-06T04:43:35;9.60;;;4.80;;
53801;SDS011;39709;53.334;6.534;2023-08-06T04:46:01;9.27;;;4.03;;
53801;SDS011;39709;53.334;6.534;2023-08-06T04:48:27;8.93;;;3.78;;
53801;SDS011;39709;53.334;6.534;2023-08-06T04:50:53;9.27;;;4.10;;
53801;SDS011;39709;53.334;6.534;2023-08-06T04:53:19;10.40;;;4.07;;
53801;SDS011;39709;53.334;6.534;2023-08-06T04:55:45;8.55;;;4.10;;
53801;SDS011;39709;53.334;6.534;2023-08-06T04:58:12;8.00;;;3.67;;
53801;SDS011;39709;53.334;6.534;2023-08-06T05:00:38;8.23;;;3.78;;
53801;SDS011;39709;53.334;6.534;2023-08-06T05:03:05;8.57;;;3.80;;
53801;SDS011;39709;53.334;6.534;2023-08-06T05:05:31;9.35;;;3.80;;
53801;SDS011;39709;53.334;6.534;2023-08-06T05:07:56;12.43;;;4.60;;
53801;SDS011;39709;53.334;6.534;2023-08-06T05:10:24;8.80;;;4.13;;
53801;SDS011;39709;53.334;6.534;2023-08-06T05:12:51;10.55;;;4.40;;
53801;SDS011;39709;53.334;6.534;2023-08-06T05:15:16;9.70;;;3.87;;
53801;SDS011;39709;53.334;6.534;2023-08-06T05:17:42;10.43;;;5.40;;
53801;SDS011;39709;53.334;6.534;2023-08-06T05:20:08;10.17;;;5.60;;
53801;SDS011;39709;53.334;6.534;2023-08-06T05:22:34;8.73;;;4.10;;
53801;SDS011;39709;53.334;6.534;2023-08-06T05:25:00;9.43;;;4.53;;
53801;SDS011;39709;53.334;6.534;2023-08-06T05:27:25;11.57;;;5.57;;
53801;SDS011;39709;53.334;6.534;2023-08-06T05:29:54;10.17;;;4.50;;
53801;SDS011;39709;53.334;6.534;2023-08-06T05:32:21;9.90;;;4.88;;
53801;SDS011;39709;53.334;6.534;2023-08-06T05:34:47;8.37;;;4.10;;
53801;SDS011;39709;53.334;6.534;2023-08-06T05:37:12;10.53;;;5.37;;
53801;SDS011;39709;53.334;6.534;2023-08-06T05:39:38;9.23;;;4.40;;
53801;SDS011;39709;53.334;6.534;2023-08-06T05:42:04;16.02;;;5.70;;
53801;SDS011;39709;53.334;6.534;2023-08-06T05:44:30;11.73;;;6.00;;
53801;SDS011;39709;53.334;6.534;2023-08-06T05:46:55;9.83;;;5.37;;
53801;SDS011;39709;53.334;6.534;2023-08-06T05:49:21;13.90;;;5.95;;
53801;SDS011;39709;53.334;6.534;2023-08-06T05:51:47;13.00;;;5.90;;
53801;SDS011;39709;53.334;6.534;2023-08-06T05:54:13;11.88;;;5.63;;
53801;SDS011;39709;53.334;6.534;2023-08-06T05:56:39;10.10;;;5.50;;
53801;SDS011;39709;53.334;6.534;2023-08-06T05:59:04;11.73;;;5.83;;
53801;SDS011;39709;53.334;6.534;2023-08-06T06:01:30;11.83;;;6.07;;
53801;SDS011;39709;53.334;6.534;2023-08-06T06:03:56;13.02;;;5.78;;
53801;SDS011;39709;53.334;6.534;2023-08-06T06:06:21;11.13;;;5.40;;
53801;SDS011;39709;53.334;6.534;2023-08-06T06:08:47;12.50;;;5.80;;
53801;SDS011;39709;53.334;6.534;2023-08-06T06:11:13;8.47;;;4.43;;
53801;SDS011;39709;53.334;6.534;2023-08-06T06:13:38;9.43;;;4.50;;
53801;SDS011;39709;53.334;6.534;2023-08-06T06:16:04;10.80;;;4.80;;
53801;SDS011;39709;53.334;6.534;2023-08-06T06:18:30;10.63;;;6.22;;
53801;SDS011;39709;53.334;6.534;2023-08-06T06:20:56;8.07;;;4.23;;
53801;SDS011;39709;53.334;6.534;2023-08-06T06:23:21;13.90;;;5.47;;
53801;SDS011;39709;53.334;6.534;2023-08-06T06:25:50;8.47;;;3.90;;
53801;SDS011;39709;53.334;6.534;2023-08-06T06:28:19;7.72;;;3.65;;
53801;SDS011;39709;53.334;6.534;2023-08-06T06:30:45;8.43;;;3.85;;
53801;SDS011;39709;53.334;6.534;2023-08-06T06:33:10;7.43;;;3.47;;
53801;SDS011;39709;53.334;6.534;2023-08-06T06:35:36;8.00;;;3.83;;
53801;SDS011;39709;53.334;6.534;2023-08-06T06:38:02;10.33;;;3.93;;
53801;SDS011;39709;53.334;6.534;2023-08-06T06:40:27;10.63;;;5.32;;
53801;SDS011;39709;53.334;6.534;2023-08-06T06:42:53;10.73;;;5.73;;
53801;SDS011;39709;53.334;6.534;2023-08-06T06:45:19;10.23;;;5.50;;
53801;SDS011;39709;53.334;6.534;2023-08-06T06:47:45;9.47;;;5.20;;
53801;SDS011;39709;53.334;6.534;2023-08-06T06:50:10;7.22;;;3.47;;
53801;SDS011;39709;53.334;6.534;2023-08-06T06:52:36;7.63;;;3.60;;
53801;SDS011;39709;53.334;6.534;2023-08-06T06:55:02;8.25;;;3.88;;
53801;SDS011;39709;53.334;6.534;2023-08-06T06:57:28;7.50;;;3.40;;
53801;SDS011;39709;53.334;6.534;2023-08-06T06:59:54;7.43;;;3.47;;
53801;SDS011;39709;53.334;6.534;2023-08-06T07:02:20;7.97;;;3.80;;
53801;SDS011;39709;53.334;6.534;2023-08-06T07:04:45;10.50;;;5.18;;
53801;SDS011;39709;53.334;6.534;2023-08-06T07:07:11;8.80;;;4.37;;
53801;SDS011;39709;53.334;6.534;2023-08-06T07:09:37;7.60;;;3.30;;
53801;SDS011;39709;53.334;6.534;2023-08-06T07:12:03;10.20;;;3.83;;
53801;SDS011;39709;53.334;6.534;2023-08-06T07:14:29;7.95;;;3.30;;
53801;SDS011;39709;53.334;6.534;2023-08-06T07:16:54;5.80;;;2.50;;
53801;SDS011;39709;53.334;6.534;2023-08-06T07:19:20;6.43;;;2.45;;
53801;SDS011;39709;53.334;6.534;2023-08-06T07:21:46;7.07;;;2.47;;
53801;SDS011;39709;53.334;6.534;2023-08-06T07:24:11;7.68;;;2.80;;
53801;SDS011;39709;53.334;6.534;2023-08-06T07:26:37;6.20;;;2.53;;
53801;SDS011;39709;53.334;6.534;2023-08-06T07:29:03;4.38;;;1.60;;
53801;SDS011;39709;53.334;6.534;2023-08-06T07:31:29;6.20;;;2.50;;
53801;SDS011;39709;53.334;6.534;2023-08-06T07:33:55;6.57;;;2.50;;
53801;SDS011;39709;53.334;6.534;2023-08-06T07:36:20;5.57;;;1.00;;
53801;SDS011;39709;53.334;6.534;2023-08-06T07:38:46;5.18;;;2.30;;
53801;SDS011;39709;53.334;6.534;2023-08-06T07:41:13;5.85;;;2.35;;
53801;SDS011;39709;53.334;6.534;2023-08-06T07:43:39;4.77;;;1.17;;
53801;SDS011;39709;53.334;6.534;2023-08-06T07:46:05;4.70;;;1.67;;
53801;SDS011;39709;53.334;6.534;2023-08-06T07:48:30;5.10;;;2.07;;
53801;SDS011;39709;53.334;6.534;2023-08-06T07:50:56;8.75;;;3.70;;
53801;SDS011;39709;53.334;6.534;2023-08-06T07:53:23;9.73;;;4.33;;
53801;SDS011;39709;53.334;6.534;2023-08-06T07:55:52;8.50;;;4.47;;
53801;SDS011;39709;53.334;6.534;2023-08-06T07:58:19;5.60;;;2.22;;
53801;SDS011;39709;53.334;6.534;2023-08-06T08:00:45;8.45;;;4.00;;
53801;SDS011;39709;53.334;6.534;2023-08-06T08:03:12;6.22;;;2.30;;
53801;SDS011;39709;53.334;6.534;2023-08-06T08:05:40;6.23;;;2.57;;
53801;SDS011;39709;53.334;6.534;2023-08-06T08:08:06;6.18;;;2.30;;
53801;SDS011;39709;53.334;6.534;2023-08-06T08:10:32;6.07;;;2.13;;
53801;SDS011;39709;53.334;6.534;2023-08-06T08:12:59;5.72;;;1.95;;
53801;SDS011;39709;53.334;6.534;2023-08-06T08:15:27;5.82;;;2.40;;
53801;SDS011;39709;53.334;6.534;2023-08-06T08:17:54;4.43;;;1.53;;
53801;SDS011;39709;53.334;6.534;2023-08-06T08:20:20;7.28;;;2.15;;
53801;SDS011;39709;53.334;6.534;2023-08-06T08:22:45;6.10;;;2.72;;
53801;SDS011;39709;53.334;6.534;2023-08-06T08:25:11;6.10;;;2.50;;
53801;SDS011;39709;53.334;6.534;2023-08-06T08:27:37;5.00;;;2.00;;
53801;SDS011;39709;53.334;6.534;2023-08-06T08:30:03;5.27;;;1.20;;
53801;SDS011;39709;53.334;6.534;2023-08-06T08:32:29;3.40;;;1.02;;
53801;SDS011;39709;53.334;6.534;2023-08-06T08:34:55;4.35;;;1.48;;
53801;SDS011;39709;53.334;6.534;2023-08-06T08:37:20;4.83;;;1.93;;
53801;SDS011;39709;53.334;6.534;2023-08-06T08:39:48;4.18;;;1.35;;
53801;SDS011;39709;53.334;6.534;2023-08-06T08:42:14;3.27;;;1.10;;
53801;SDS011;39709;53.334;6.534;2023-08-06T08:44:41;6.97;;;2.10;;
53801;SDS011;39709;53.334;6.534;2023-08-06T08:47:08;3.97;;;1.40;;
53801;SDS011;39709;53.334;6.534;2023-08-06T08:49:35;4.43;;;1.38;;
53801;SDS011;39709;53.334;6.534;2023-08-06T08:52:02;5.45;;;2.00;;
53801;SDS011;39709;53.334;6.534;2023-08-06T08:54:31;4.60;;;1.27;;
53801;SDS011;39709;53.334;6.534;2023-08-06T08:56:59;4.80;;;1.70;;
53801;SDS011;39709;53.334;6.534;2023-08-06T08:59:25;4.55;;;1.25;;
53801;SDS011;39709;53.334;6.534;2023-08-06T09:01:52;5.40;;;1.60;;
53801;SDS011;39709;53.334;6.534;2023-08-06T09:04:19;5.68;;;1.80;;
53801;SDS011;39709;53.334;6.534;2023-08-06T09:06:47;4.80;;;1.60;;
53801;SDS011;39709;53.334;6.534;2023-08-06T09:09:17;5.20;;;1.77;;
53801;SDS011;39709;53.334;6.534;2023-08-06T09:11:53;4.95;;;1.38;;
53801;SDS011;39709;53.334;6.534;2023-08-06T09:14:24;3.90;;;1.38;;
53801;SDS011;39709;53.334;6.534;2023-08-06T09:16:51;4.28;;;1.30;;
53801;SDS011;39709;53.334;6.534;2023-08-06T09:19:17;3.83;;;1.30;;
53801;SDS011;39709;53.334;6.534;2023-08-06T09:21:43;5.22;;;1.50;;
53801;SDS011;39709;53.334;6.534;2023-08-06T09:24:13;6.10;;;1.90;;
53801;SDS011;39709;53.334;6.534;2023-08-06T09:26:41;5.97;;;1.60;;
53801;SDS011;39709;53.334;6.534;2023-08-06T09:29:09;4.63;;;1.60;;
53801;SDS011;39709;53.334;6.534;2023-08-06T09:31:45;5.95;;;1.70;;
53801;SDS011;39709;53.334;6.534;2023-08-06T09:34:16;4.60;;;1.40;;
53801;SDS011;39709;53.334;6.534;2023-08-06T09:36:47;3.67;;;1.30;;
53801;SDS011;39709;53.334;6.534;2023-08-06T09:39:16;3.77;;;1.27;;
53801;SDS011;39709;53.334;6.534;2023-08-06T09:41:43;4.88;;;1.60;;
53801;SDS011;39709;53.334;6.534;2023-08-06T09:44:16;4.03;;;1.30;;
53801;SDS011;39709;53.334;6.534;2023-08-06T09:46:53;4.00;;;1.20;;
53801;SDS011;39709;53.334;6.534;2023-08-06T09:49:24;3.55;;;1.30;;
53801;SDS011;39709;53.334;6.534;2023-08-06T09:51:51;4.40;;;1.50;;
53801;SDS011;39709;53.334;6.534;2023-08-06T09:54:22;5.05;;;1.83;;
53801;SDS011;39709;53.334;6.534;2023-08-06T09:56:48;5.07;;;1.73;;
53801;SDS011;39709;53.334;6.534;2023-08-06T09:59:14;5.63;;;1.45;;
53801;SDS011;39709;53.334;6.534;2023-08-06T10:01:41;4.03;;;1.10;;
53801;SDS011;39709;53.334;6.534;2023-08-06T10:04:07;4.80;;;1.30;;
53801;SDS011;39709;53.334;6.534;2023-08-06T10:06:34;4.95;;;1.10;;
53801;SDS011;39709;53.334;6.534;2023-08-06T10:09:01;4.40;;;1.27;;
53801;SDS011;39709;53.334;6.534;2023-08-06T10:11:27;4.47;;;1.30;;
53801;SDS011;39709;53.334;6.534;2023-08-06T10:13:56;4.03;;;1.40;;
53801;SDS011;39709;53.334;6.534;2023-08-06T10:16:36;6.00;;;1.10;;
53801;SDS011;39709;53.334;6.534;2023-08-06T10:19:04;4.55;;;1.38;;
53801;SDS011;39709;53.334;6.534;2023-08-06T10:21:32;5.22;;;1.15;;
53801;SDS011;39709;53.334;6.534;2023-08-06T10:23:58;4.57;;;1.42;;
53801;SDS011;39709;53.334;6.534;2023-08-06T10:26:27;5.27;;;1.50;;
53801;SDS011;39709;53.334;6.534;2023-08-06T10:28:53;5.07;;;1.23;;
53801;SDS011;39709;53.334;6.534;2023-08-06T10:31:19;3.85;;;1.40;;
53801;SDS011;39709;53.334;6.534;2023-08-06T10:33:46;4.70;;;1.40;;
53801;SDS011;39709;53.334;6.534;2023-08-06T10:36:13;4.22;;;1.30;;
53801;SDS011;39709;53.334;6.534;2023-08-06T10:41:36;5.00;;;1.10;;
53801;SDS011;39709;53.334;6.534;2023-08-06T10:44:10;4.70;;;1.10;;
53801;SDS011;39709;53.334;6.534;2023-08-06T10:46:37;3.07;;;0.90;;
53801;SDS011;39709;53.334;6.534;2023-08-06T10:49:03;5.05;;;1.40;;
53801;SDS011;39709;53.334;6.534;2023-08-06T10:51:29;4.55;;;1.50;;
53801;SDS011;39709;53.334;6.534;2023-08-06T10:53:55;4.07;;;1.42;;
53801;SDS011;39709;53.334;6.534;2023-08-06T10:56:23;4.73;;;1.27;;
53801;SDS011;39709;53.334;6.534;2023-08-06T10:58:51;4.00;;;1.10;;
53801;SDS011;39709;53.334;6.534;2023-08-06T11:01:19;5.05;;;1.40;;
53801;SDS011;39709;53.334;6.534;2023-08-06T11:03:46;3.40;;;1.20;;
53801;SDS011;39709;53.334;6.534;2023-08-06T11:06:18;4.60;;;1.23;;
53801;SDS011;39709;53.334;6.534;2023-08-06T11:08:54;4.20;;;1.30;;
53801;SDS011;39709;53.334;6.534;2023-08-06T11:11:20;4.90;;;1.27;;
53801;SDS011;39709;53.334;6.534;2023-08-06T11:13:48;4.95;;;1.38;;
53801;SDS011;39709;53.334;6.534;2023-08-06T11:16:15;3.28;;;1.20;;
53801;SDS011;39709;53.334;6.534;2023-08-06T11:18:43;4.53;;;1.20;;
53801;SDS011;39709;53.334;6.534;2023-08-06T11:21:09;3.63;;;0.93;;
53801;SDS011;39709;53.334;6.534;2023-08-06T11:23:37;3.90;;;1.20;;
53801;SDS011;39709;53.334;6.534;2023-08-06T11:26:03;4.35;;;1.42;;
53801;SDS011;39709;53.334;6.534;2023-08-06T11:28:29;4.20;;;1.30;;
53801;SDS011;39709;53.334;6.534;2023-08-06T11:30:55;3.93;;;1.07;;
53801;SDS011;39709;53.334;6.534;2023-08-06T11:33:23;4.85;;;1.35;;
53801;SDS011;39709;53.334;6.534;2023-08-06T11:35:52;5.00;;;1.55;;
53801;SDS011;39709;53.334;6.534;2023-08-06T11:38:26;4.68;;;1.40;;
53801;SDS011;39709;53.334;6.534;2023-08-06T11:40:54;4.75;;;1.60;;
53801;SDS011;39709;53.334;6.534;2023-08-06T11:43:20;4.07;;;1.40;;
53801;SDS011;39709;53.334;6.534;2023-08-06T11:45:48;4.65;;;1.67;;
53801;SDS011;39709;53.334;6.534;2023-08-06T11:48:14;3.05;;;0.98;;
53801;SDS011;39709;53.334;6.534;2023-08-06T11:50:40;4.82;;;1.70;;
53801;SDS011;39709;53.334;6.534;2023-08-06T11:53:06;4.40;;;1.30;;
53801;SDS011;39709;53.334;6.534;2023-08-06T11:55:32;4.03;;;1.25;;
53801;SDS011;39709;53.334;6.534;2023-08-06T11:57:59;3.60;;;1.40;;
53801;SDS011;39709;53.334;6.534;2023-08-06T12:00:38;3.20;;;1.02;;
53801;SDS011;39709;53.334;6.534;2023-08-06T12:03:10;4.70;;;1.40;;
53801;SDS011;39709;53.334;6.534;2023-08-06T12:05:35;4.60;;;1.77;;
53801;SDS011;39709;53.334;6.534;2023-08-06T12:08:03;4.47;;;1.08;;
53801;SDS011;39709;53.334;6.534;2023-08-06T12:10:30;5.20;;;1.63;;
53801;SDS011;39709;53.334;6.534;2023-08-06T12:12:56;6.07;;;1.33;;
53801;SDS011;39709;53.334;6.534;2023-08-06T12:15:22;4.88;;;1.27;;
53801;SDS011;39709;53.334;6.534;2023-08-06T12:17:49;3.80;;;1.40;;
53801;SDS011;39709;53.334;6.534;2023-08-06T12:20:14;3.47;;;1.00;;
53801;SDS011;39709;53.334;6.534;2023-08-06T12:22:40;4.07;;;1.20;;
53801;SDS011;39709;53.334;6.534;2023-08-06T12:25:07;3.47;;;1.03;;
53801;SDS011;39709;53.334;6.534;2023-08-06T12:27:37;3.38;;;1.25;;
53801;SDS011;39709;53.334;6.534;2023-08-06T12:30:04;4.40;;;1.42;;
53801;SDS011;39709;53.334;6.534;2023-08-06T12:32:30;3.38;;;1.20;;
53801;SDS011;39709;53.334;6.534;2023-08-06T12:34:56;3.88;;;1.30;;
53801;SDS011;39709;53.334;6.534;2023-08-06T12:37:22;3.70;;;1.30;;
53801;SDS011;39709;53.334;6.534;2023-08-06T12:39:49;4.82;;;1.10;;
53801;SDS011;39709;53.334;6.534;2023-08-06T12:42:14;3.77;;;1.00;;
53801;SDS011;39709;53.334;6.534;2023-08-06T12:44:40;4.32;;;1.40;;
53801;SDS011;39709;53.334;6.534;2023-08-06T12:47:09;3.03;;;1.13;;
53801;SDS011;39709;53.334;6.534;2023-08-06T12:49:35;3.65;;;1.08;;
53801;SDS011;39709;53.334;6.534;2023-08-06T12:52:01;4.78;;;1.30;;
53801;SDS011;39709;53.334;6.534;2023-08-06T12:54:27;4.83;;;1.67;;
53801;SDS011;39709;53.334;6.534;2023-08-06T12:56:53;3.60;;;1.10;;
53801;SDS011;39709;53.334;6.534;2023-08-06T12:59:19;4.47;;;1.20;;
53801;SDS011;39709;53.334;6.534;2023-08-06T13:01:45;5.35;;;1.98;;
53801;SDS011;39709;53.334;6.534;2023-08-06T13:04:11;3.83;;;1.20;;
53801;SDS011;39709;53.334;6.534;2023-08-06T13:06:37;3.70;;;1.17;;
53801;SDS011;39709;53.334;6.534;2023-08-06T13:09:08;4.13;;;1.23;;
53801;SDS011;39709;53.334;6.534;2023-08-06T13:11:35;3.83;;;1.50;;
53801;SDS011;39709;53.334;6.534;2023-08-06T13:14:13;4.45;;;1.40;;
53801;SDS011;39709;53.334;6.534;2023-08-06T13:16:40;6.30;;;1.40;;
53801;SDS011;39709;53.334;6.534;2023-08-06T13:19:06;3.73;;;1.27;;
53801;SDS011;39709;53.334;6.534;2023-08-06T13:21:34;3.90;;;1.10;;
53801;SDS011;39709;53.334;6.534;2023-08-06T13:24:06;3.85;;;1.20;;
53801;SDS011;39709;53.334;6.534;2023-08-06T13:26:32;3.53;;;1.17;;
53801;SDS011;39709;53.334;6.534;2023-08-06T13:28:58;3.20;;;0.97;;
53801;SDS011;39709;53.334;6.534;2023-08-06T13:31:25;4.28;;;1.13;;
53801;SDS011;39709;53.334;6.534;2023-08-06T13:33:52;3.92;;;1.10;;
53801;SDS011;39709;53.334;6.534;2023-08-06T13:36:20;4.50;;;1.00;;
53801;SDS011;39709;53.334;6.534;2023-08-06T13:38:46;4.73;;;1.10;;
53801;SDS011;39709;53.334;6.534;2023-08-06T13:41:12;3.35;;;1.00;;
53801;SDS011;39709;53.334;6.534;2023-08-06T13:43:38;4.10;;;1.30;;
53801;SDS011;39709;53.334;6.534;2023-08-06T13:46:04;3.30;;;1.20;;
53801;SDS011;39709;53.334;6.534;2023-08-06T13:48:30;4.40;;;1.30;;
53801;SDS011;39709;53.334;6.534;2023-08-06T13:50:56;3.37;;;1.10;;
53801;SDS011;39709;53.334;6.534;2023-08-06T13:53:22;3.90;;;1.30;;
53801;SDS011;39709;53.334;6.534;2023-08-06T13:55:47;6.30;;;1.30;;
53801;SDS011;39709;53.334;6.534;2023-08-06T13:58:13;3.43;;;1.10;;
53801;SDS011;39709;53.334;6.534;2023-08-06T14:00:39;4.50;;;1.20;;
53801;SDS011;39709;53.334;6.534;2023-08-06T14:03:04;4.60;;;1.23;;
53801;SDS011;39709;53.334;6.534;2023-08-06T14:05:30;3.97;;;1.20;;
53801;SDS011;39709;53.334;6.534;2023-08-06T14:07:56;3.58;;;1.10;;
53801;SDS011;39709;53.334;6.534;2023-08-06T14:10:21;3.70;;;1.20;;
53801;SDS011;39709;53.334;6.534;2023-08-06T14:12:47;3.47;;;1.07;;
53801;SDS011;39709;53.334;6.534;2023-08-06T14:15:13;4.63;;;1.20;;
53801;SDS011;39709;53.334;6.534;2023-08-06T14:17:38;3.42;;;1.30;;
53801;SDS011;39709;53.334;6.534;2023-08-06T14:20:05;3.25;;;1.20;;
53801;SDS011;39709;53.334;6.534;2023-08-06T14:22:33;3.67;;;1.20;;
53801;SDS011;39709;53.334;6.534;2023-08-06T14:24:58;3.60;;;1.42;;
53801;SDS011;39709;53.334;6.534;2023-08-06T14:27:24;4.70;;;1.20;;
53801;SDS011;39709;53.334;6.534;2023-08-06T14:29:50;3.85;;;1.17;;
53801;SDS011;39709;53.334;6.534;2023-08-06T14:32:16;2.88;;;0.77;;
53801;SDS011;39709;53.334;6.534;2023-08-06T14:34:43;3.97;;;1.03;;
53801;SDS011;39709;53.334;6.534;2023-08-06T14:37:09;3.90;;;1.30;;
53801;SDS011;39709;53.334;6.534;2023-08-06T14:39:35;3.45;;;1.00;;
53801;SDS011;39709;53.334;6.534;2023-08-06T14:42:01;5.00;;;1.23;;
53801;SDS011;39709;53.334;6.534;2023-08-06T14:44:28;3.77;;;1.20;;
53801;SDS011;39709;53.334;6.534;2023-08-06T14:46:53;4.20;;;1.20;;
53801;SDS011;39709;53.334;6.534;2023-08-06T14:49:19;4.63;;;1.33;;
53801;SDS011;39709;53.334;6.534;2023-08-06T14:51:45;4.38;;;1.20;;